createdAt,value
2024-04-22T00:01:34.144Z,76.15
2024-04-22T00:04:01.904Z,76.18
2024-04-22T00:06:29.603Z,76.23
2024-04-22T00:08:57.831Z,76.35
2024-04-22T00:11:25.345Z,76.38
2024-04-22T00:13:52.790Z,76.40
2024-04-22T00:16:20.254Z,76.48
2024-04-22T00:18:47.774Z,76.54
2024-04-22T00:21:15.639Z,76.55
2024-04-22T00:23:43.116Z,76.58
2024-04-22T00:26:10.553Z,76.59
2024-04-22T00:28:38.744Z,76.61
2024-04-22T00:31:06.369Z,76.60
2024-04-22T00:33:33.915Z,76.65
2024-04-22T00:36:01.921Z,76.65
2024-04-22T00:38:30.789Z,76.67
2024-04-22T00:40:59.216Z,76.70
2024-04-22T00:43:26.731Z,76.67
2024-04-22T00:45:54.343Z,76.65
2024-04-22T00:48:23.889Z,76.64
2024-04-22T00:50:53.880Z,76.61
2024-04-22T00:53:21.821Z,76.52
2024-04-22T00:55:50.520Z,76.40
2024-04-22T00:58:19.435Z,76.32
2024-04-22T01:00:48.404Z,76.26
2024-04-22T01:03:16.802Z,76.23
2024-04-22T01:05:44.342Z,76.26
2024-04-22T01:08:11.798Z,76.27
2024-04-22T01:10:39.335Z,76.32
2024-04-22T01:13:06.976Z,76.39
2024-04-22T01:15:34.586Z,76.47
2024-04-22T01:18:02.136Z,76.52
2024-04-22T01:20:29.652Z,76.55
2024-04-22T01:22:57.101Z,76.55
2024-04-22T01:25:27.177Z,76.63
2024-04-22T01:27:54.694Z,76.64
2024-04-22T01:30:22.139Z,76.60
2024-04-22T01:32:49.658Z,76.61
2024-04-22T01:35:17.444Z,76.67
2024-04-22T01:37:45.006Z,76.61
2024-04-22T01:40:13.287Z,76.62
2024-04-22T01:42:40.742Z,76.70
2024-04-22T01:45:08.412Z,76.69
2024-04-22T01:47:35.892Z,76.67
2024-04-22T01:50:03.569Z,76.63
2024-04-22T01:52:31.078Z,76.66
2024-04-22T01:54:58.609Z,76.70
2024-04-22T01:57:26.029Z,76.69
2024-04-22T01:59:53.510Z,76.67
2024-04-22T02:02:20.975Z,76.62
2024-04-22T02:04:48.459Z,76.54
2024-04-22T02:07:15.905Z,76.54
2024-04-22T02:09:43.322Z,76.46
2024-04-22T02:12:10.774Z,76.48
2024-04-22T02:14:40.194Z,76.47
2024-04-22T02:17:07.664Z,76.46
2024-04-22T02:19:35.307Z,76.48
2024-04-22T02:22:02.811Z,76.50
2024-04-22T02:24:30.345Z,76.45
2024-04-22T02:26:57.771Z,76.45
2024-04-22T02:29:25.201Z,76.44
2024-04-22T02:31:52.680Z,76.46
2024-04-22T02:34:20.089Z,76.41
2024-04-22T02:36:47.484Z,76.37
2024-04-22T02:39:14.931Z,76.35
2024-04-22T02:41:42.556Z,76.27
2024-04-22T02:44:10.003Z,76.28
2024-04-22T02:46:37.438Z,76.30
2024-04-22T02:49:04.864Z,76.31
2024-04-22T02:51:32.372Z,76.37
2024-04-22T02:53:59.816Z,76.36
2024-04-22T02:56:27.314Z,76.40
2024-04-22T02:58:56.913Z,76.36
2024-04-22T03:01:24.920Z,76.38
2024-04-22T03:03:52.491Z,76.37
2024-04-22T03:06:20.009Z,76.36
2024-04-22T03:08:50.885Z,76.38
2024-04-22T03:11:18.358Z,76.36
2024-04-22T03:13:47.870Z,76.39
2024-04-22T03:16:16.964Z,76.38
2024-04-22T03:18:47.560Z,76.40
2024-04-22T03:21:15.137Z,76.54
2024-04-22T03:23:42.569Z,76.51
2024-04-22T03:26:11.522Z,76.53
2024-04-22T03:28:39.216Z,76.56
2024-04-22T03:31:07.263Z,76.64
2024-04-22T03:33:34.898Z,76.66
2024-04-22T03:36:03.572Z,76.70
2024-04-22T03:38:31.086Z,76.70
2024-04-22T03:40:58.496Z,76.78
2024-04-22T03:43:25.933Z,76.80
2024-04-22T03:46:12.290Z,76.86
2024-04-22T03:48:58.320Z,76.94
2024-04-22T03:51:26.086Z,76.98
2024-04-22T03:53:53.554Z,77.02
2024-04-22T03:56:21.041Z,77.02
2024-04-22T03:58:48.521Z,77.06
2024-04-22T04:01:17.239Z,77.21
2024-04-22T04:03:44.871Z,77.28
2024-04-22T04:06:12.429Z,77.27
2024-04-22T04:08:39.925Z,77.23
2024-04-22T04:11:14.169Z,77.34
2024-04-22T04:13:45.640Z,77.51
2024-04-22T04:16:13.225Z,77.42
2024-04-22T04:18:42.565Z,77.35
2024-04-22T04:21:10.070Z,77.33
2024-04-22T04:23:37.557Z,77.39
2024-04-22T04:26:05.089Z,77.41
2024-04-22T04:28:32.537Z,77.39
2024-04-22T04:31:01.234Z,77.34
2024-04-22T04:33:28.936Z,77.40
2024-04-22T04:36:03.981Z,77.35
2024-04-22T04:38:32.562Z,77.31
2024-04-22T04:41:00.930Z,77.55
2024-04-22T04:43:31.223Z,77.43
2024-04-22T04:45:59.114Z,77.36
2024-04-22T04:48:27.496Z,77.38
2024-04-22T04:50:55.258Z,77.34
2024-04-22T04:53:22.942Z,77.42
2024-04-22T04:55:50.566Z,77.43
2024-04-22T04:58:18.968Z,77.52
2024-04-22T05:00:47.153Z,77.50
2024-04-22T05:03:15.391Z,77.46
2024-04-22T05:05:42.910Z,77.54
2024-04-22T05:08:10.379Z,77.57
2024-04-22T05:10:37.987Z,77.59
2024-04-22T05:13:05.602Z,77.67
2024-04-22T05:15:33.096Z,77.67
2024-04-22T05:18:00.640Z,77.64
2024-04-22T05:20:31.026Z,77.64
2024-04-22T05:22:58.606Z,77.63
2024-04-22T05:25:26.326Z,77.61
2024-04-22T05:27:54.122Z,77.61
2024-04-22T05:30:22.559Z,77.65
2024-04-22T05:32:50.170Z,77.68
2024-04-22T05:35:36.564Z,77.68
2024-04-22T05:38:04.215Z,77.62
2024-04-22T05:40:31.709Z,77.70
2024-04-22T05:42:59.181Z,77.77
2024-04-22T05:45:26.944Z,77.80
2024-04-22T05:47:54.577Z,77.79
2024-04-22T05:50:22.273Z,77.89
2024-04-22T05:52:49.722Z,77.91
2024-04-22T05:55:17.241Z,77.98
2024-04-22T05:57:47.208Z,77.94
2024-04-22T06:00:16.207Z,77.99
2024-04-22T06:02:43.669Z,77.91
2024-04-22T06:05:11.211Z,77.93
2024-04-22T06:07:39.020Z,77.89
2024-04-22T06:10:06.957Z,77.93
2024-04-22T06:12:34.358Z,77.85
2024-04-22T06:15:01.806Z,77.83
2024-04-22T06:17:29.317Z,77.80
2024-04-22T06:19:56.777Z,77.78
2024-04-22T06:22:24.326Z,77.82
2024-04-22T06:24:52.824Z,77.83
2024-04-22T06:27:20.296Z,77.86
2024-04-22T06:29:48.956Z,77.90
2024-04-22T06:32:16.665Z,78.02
2024-04-22T06:34:44.308Z,77.97
2024-04-22T06:37:11.930Z,77.93
2024-04-22T06:39:39.586Z,77.96
2024-04-22T06:42:07.133Z,77.89
2024-04-22T06:44:34.571Z,77.78
2024-04-22T06:47:03.549Z,77.61
2024-04-22T06:49:31.168Z,77.34
2024-04-22T06:51:58.632Z,77.29
2024-04-22T06:54:26.070Z,77.27
2024-04-22T06:56:53.535Z,76.99
2024-04-22T06:59:20.999Z,76.59
2024-04-22T07:01:48.463Z,76.13
2024-04-22T07:04:16.667Z,75.84
2024-04-22T07:06:44.586Z,75.64
2024-04-22T07:09:14.017Z,75.65
2024-04-22T07:11:41.604Z,75.67
2024-04-22T07:14:12.761Z,75.52
2024-04-22T07:16:41.569Z,75.41
2024-04-22T07:19:09.254Z,75.38
2024-04-22T07:21:36.718Z,75.34
2024-04-22T07:24:04.380Z,75.25
2024-04-22T07:26:31.837Z,75.19
2024-04-22T07:28:59.566Z,75.22
2024-04-22T07:31:27.330Z,75.23
2024-04-22T07:33:55.125Z,75.19
2024-04-22T07:36:29.981Z,74.94
2024-04-22T07:39:01.392Z,74.61
2024-04-22T07:41:29.491Z,74.46
2024-04-22T07:43:57.075Z,74.36
2024-04-22T07:46:25.532Z,74.03
2024-04-22T07:48:53.001Z,74.29
2024-04-22T07:51:20.427Z,74.12
2024-04-22T07:53:48.177Z,73.91
2024-04-22T07:56:18.238Z,74.02
2024-04-22T07:58:46.186Z,73.73
2024-04-22T08:01:14.705Z,73.32
2024-04-22T08:03:43.019Z,73.35
2024-04-22T08:06:17.536Z,73.25
2024-04-22T08:08:45.238Z,72.92
2024-04-22T08:11:13.218Z,72.63
2024-04-22T08:13:40.852Z,72.43
2024-04-22T08:16:08.350Z,72.43
2024-04-22T08:18:35.876Z,72.22
2024-04-22T08:21:03.555Z,71.70
2024-04-22T08:23:32.003Z,71.49
2024-04-22T08:25:59.605Z,71.39
2024-04-22T08:28:27.353Z,70.92
2024-04-22T08:31:06.251Z,70.71
2024-04-22T08:33:34.096Z,70.80
2024-04-22T08:36:02.107Z,70.53
2024-04-22T08:38:29.948Z,70.25
2024-04-22T08:40:57.853Z,69.71
2024-04-22T08:43:25.507Z,68.89
2024-04-22T08:45:53.038Z,68.54
2024-04-22T08:48:20.663Z,68.37
2024-04-22T08:50:51.531Z,68.51
2024-04-22T08:53:20.204Z,68.51
2024-04-22T08:55:48.018Z,68.34
2024-04-22T08:58:16.127Z,67.50
2024-04-22T09:00:43.958Z,67.84
2024-04-22T09:03:11.533Z,67.45
2024-04-22T09:05:40.169Z,66.89
2024-04-22T09:08:10.000Z,66.81
2024-04-22T09:11:11.648Z,66.84
2024-04-22T09:13:29.040Z,67.30
2024-04-22T09:15:57.249Z,67.27
2024-04-22T09:18:29.960Z,67.18
2024-04-22T09:21:07.252Z,66.95
2024-04-22T09:23:35.943Z,67.22
2024-04-22T09:26:03.995Z,67.33
2024-04-22T09:28:35.581Z,67.22
2024-04-22T09:31:04.831Z,67.33
2024-04-22T09:33:36.753Z,67.47
2024-04-22T09:36:05.787Z,67.66
2024-04-22T09:38:43.752Z,67.59
2024-04-22T09:41:16.716Z,67.05
2024-04-22T09:43:49.952Z,66.27
2024-04-22T09:46:21.215Z,66.27
2024-04-22T09:48:49.279Z,66.66
2024-04-22T09:51:18.955Z,66.10
2024-04-22T09:53:47.132Z,66.33
2024-04-22T09:56:21.816Z,66.59
2024-04-22T09:58:49.625Z,66.48
2024-04-22T10:01:17.480Z,66.37
2024-04-22T10:03:45.318Z,66.31
2024-04-22T10:06:14.200Z,66.24
2024-04-22T10:08:41.827Z,66.58
2024-04-22T10:11:12.092Z,66.52
2024-04-22T10:13:40.201Z,66.32
2024-04-22T10:16:13.904Z,66.52
2024-04-22T10:18:48.900Z,66.67
2024-04-22T10:21:16.740Z,66.80
2024-04-22T10:23:44.738Z,66.93
2024-04-22T10:26:19.708Z,67.10
2024-04-22T10:28:48.121Z,66.90
2024-04-22T10:31:23.067Z,66.59
2024-04-22T10:33:51.250Z,66.86
2024-04-22T10:36:19.006Z,66.84
2024-04-22T10:38:46.443Z,66.69
2024-04-22T10:41:14.933Z,66.68
2024-04-22T10:43:45.306Z,66.52
2024-04-22T10:46:13.024Z,66.61
2024-04-22T10:48:41.156Z,66.44
2024-04-22T10:51:11.140Z,66.27
2024-04-22T10:53:38.627Z,66.39
2024-04-22T10:56:06.983Z,66.50
2024-04-22T10:58:35.274Z,66.57
2024-04-22T11:01:04.079Z,66.60
2024-04-22T11:03:31.823Z,66.74
2024-04-22T11:06:00.670Z,66.66
2024-04-22T11:08:29.437Z,66.58
2024-04-22T11:10:58.346Z,66.50
2024-04-22T11:13:26.169Z,66.59
2024-04-22T11:15:53.689Z,66.39
2024-04-22T11:18:22.086Z,66.62
2024-04-22T11:20:49.785Z,66.73
2024-04-22T11:23:17.269Z,66.65
2024-04-22T11:25:44.820Z,66.57
2024-04-22T11:28:12.459Z,66.59
2024-04-22T11:30:42.403Z,66.57
2024-04-22T11:33:11.945Z,66.35
2024-04-22T11:35:39.518Z,66.37
2024-04-22T11:38:28.867Z,66.63
2024-04-22T11:40:56.379Z,66.51
2024-04-22T11:43:24.001Z,66.36
2024-04-22T11:45:53.332Z,66.27
2024-04-22T11:48:20.875Z,65.62
2024-04-22T11:50:48.680Z,65.69
2024-04-22T11:53:23.546Z,65.77
2024-04-22T11:55:54.922Z,65.83
2024-04-22T11:58:25.598Z,66.05
2024-04-22T12:00:53.162Z,66.21
2024-04-22T12:03:20.699Z,65.62
2024-04-22T12:05:48.341Z,65.75
2024-04-22T12:08:15.904Z,65.19
2024-04-22T12:10:43.460Z,65.06
2024-04-22T12:13:10.925Z,64.97
2024-04-22T12:15:39.065Z,65.22
2024-04-22T12:18:06.678Z,64.84
2024-04-22T12:20:34.158Z,64.86
2024-04-22T12:23:01.598Z,65.11
2024-04-22T12:25:29.117Z,64.63
2024-04-22T12:28:02.187Z,64.77
2024-04-22T12:30:33.430Z,64.45
2024-04-22T12:33:00.990Z,64.38
2024-04-22T12:35:28.463Z,64.08
2024-04-22T12:37:55.990Z,64.09
2024-04-22T12:40:23.671Z,63.87
2024-04-22T12:42:51.534Z,63.88
2024-04-22T12:45:18.975Z,63.64
2024-04-22T12:48:05.297Z,63.80
2024-04-22T12:50:46.132Z,63.79
2024-04-22T12:53:13.774Z,63.50
2024-04-22T12:55:41.600Z,63.11
2024-04-22T12:58:09.091Z,62.80
2024-04-22T13:00:36.986Z,63.03
2024-04-22T13:03:05.036Z,63.15
2024-04-22T13:05:32.759Z,63.25
2024-04-22T13:08:00.474Z,63.03
2024-04-22T13:10:28.192Z,63.00
2024-04-22T13:12:55.754Z,62.40
2024-04-22T13:15:23.218Z,62.68
2024-04-22T13:17:51.457Z,62.61
2024-04-22T13:20:19.001Z,62.73
2024-04-22T13:22:46.836Z,62.54
2024-04-22T13:25:14.608Z,62.80
2024-04-22T13:27:42.807Z,62.65
2024-04-22T13:30:13.600Z,62.64
2024-04-22T13:32:44.410Z,62.46
2024-04-22T13:35:11.987Z,62.53
2024-04-22T13:37:42.218Z,62.13
2024-04-22T13:40:10.961Z,62.09
2024-04-22T13:42:42.528Z,62.06
2024-04-22T13:45:13.212Z,62.20
2024-04-22T13:47:40.905Z,62.25
2024-04-22T13:50:08.603Z,62.44
2024-04-22T13:52:37.293Z,62.56
2024-04-22T13:55:06.741Z,62.50
2024-04-22T13:57:38.651Z,62.52
2024-04-22T14:00:09.581Z,62.87
2024-04-22T14:02:38.813Z,62.99
2024-04-22T14:05:06.445Z,62.91
2024-04-22T14:07:34.003Z,63.17
2024-04-22T14:10:04.914Z,63.07
2024-04-22T14:12:34.673Z,62.90
2024-04-22T14:15:02.152Z,63.12
2024-04-22T14:17:30.410Z,63.52
2024-04-22T14:19:58.164Z,63.57
2024-04-22T14:22:25.981Z,63.57
2024-04-22T14:24:53.471Z,63.72
2024-04-22T14:27:20.894Z,63.49
2024-04-22T14:29:48.379Z,63.54
2024-04-22T14:32:15.886Z,63.19
2024-04-22T14:34:43.698Z,63.32
2024-04-22T14:37:11.896Z,63.41
2024-04-22T14:39:39.868Z,63.48
2024-04-22T14:42:07.381Z,63.72
2024-04-22T14:44:39.122Z,63.59
2024-04-22T14:47:08.538Z,63.52
2024-04-22T14:49:36.074Z,63.52
2024-04-22T14:52:04.196Z,63.68
2024-04-22T14:54:31.675Z,63.60
2024-04-22T14:56:59.188Z,63.75
2024-04-22T14:59:26.674Z,63.80
2024-04-22T15:01:54.464Z,63.93
2024-04-22T15:04:22.304Z,64.00
2024-04-22T15:06:51.394Z,64.21
2024-04-22T15:09:18.936Z,64.12
2024-04-22T15:11:46.651Z,63.99
2024-04-22T15:14:14.279Z,64.27
2024-04-22T15:16:41.828Z,64.66
2024-04-22T15:19:09.337Z,64.85
2024-04-22T15:21:36.785Z,64.34
2024-04-22T15:24:04.383Z,64.18
2024-04-22T15:26:31.849Z,64.45
2024-04-22T15:28:59.363Z,64.62
2024-04-22T15:31:27.017Z,64.25
2024-04-22T15:33:54.671Z,64.42
2024-04-22T15:36:23.022Z,64.11
2024-04-22T15:38:50.530Z,64.18
2024-04-22T15:41:17.997Z,64.16
2024-04-22T15:43:45.517Z,64.65
2024-04-22T15:46:13.110Z,64.72
2024-04-22T15:48:40.663Z,64.15
2024-04-22T15:51:08.527Z,64.29
2024-04-22T15:53:36.013Z,64.46
2024-04-22T15:56:04.991Z,64.75
2024-04-22T15:58:32.524Z,64.76
2024-04-22T16:01:00.030Z,64.58
2024-04-22T16:03:31.762Z,64.43
2024-04-22T16:05:59.510Z,64.92
2024-04-22T16:08:27.723Z,64.95
2024-04-22T16:10:55.265Z,64.95
2024-04-22T16:13:22.963Z,65.01
2024-04-22T16:15:50.568Z,65.02
2024-04-22T16:18:18.536Z,65.16
2024-04-22T16:20:53.519Z,65.14
2024-04-22T16:23:31.408Z,65.26
2024-04-22T16:26:02.111Z,65.05
2024-04-22T16:28:29.599Z,65.30
2024-04-22T16:30:57.104Z,65.48
2024-04-22T16:33:27.106Z,65.87
2024-04-22T16:35:54.599Z,65.73
2024-04-22T16:38:22.071Z,65.96
2024-04-22T16:40:49.681Z,65.79
2024-04-22T16:43:21.028Z,65.94
2024-04-22T16:45:48.990Z,65.79
2024-04-22T16:48:18.388Z,66.01
2024-04-22T16:50:46.641Z,66.18
2024-04-22T16:53:14.135Z,66.31
2024-04-22T16:55:48.053Z,66.39
2024-04-22T16:58:15.829Z,66.22
2024-04-22T17:00:43.295Z,66.45
2024-04-22T17:03:10.752Z,66.58
2024-04-22T17:05:38.210Z,66.82
2024-04-22T17:08:05.873Z,66.67
2024-04-22T17:10:33.325Z,66.97
2024-04-22T17:13:01.409Z,66.94
2024-04-22T17:15:28.983Z,67.02
2024-04-22T17:17:56.960Z,67.07
2024-04-22T17:20:24.470Z,67.18
2024-04-22T17:22:52.165Z,67.04
2024-04-22T17:25:19.852Z,67.17
2024-04-22T17:27:48.626Z,67.24
2024-04-22T17:30:16.113Z,67.56
2024-04-22T17:32:43.703Z,67.66
2024-04-22T17:35:11.152Z,67.76
2024-04-22T17:37:38.701Z,68.00
2024-04-22T17:40:06.869Z,68.25
2024-04-22T17:42:34.368Z,68.39
2024-04-22T17:45:01.920Z,68.42
2024-04-22T17:47:29.413Z,68.55
2024-04-22T17:49:57.931Z,68.55
2024-04-22T17:52:26.145Z,68.41
2024-04-22T17:54:53.620Z,68.53
2024-04-22T17:57:22.453Z,68.58
2024-04-22T17:59:49.938Z,68.94
2024-04-22T18:02:17.514Z,68.86
2024-04-22T18:04:45.086Z,69.12
2024-04-22T18:07:12.667Z,69.31
2024-04-22T18:09:43.222Z,69.42
2024-04-22T18:12:10.900Z,69.34
2024-04-22T18:14:38.282Z,69.43
2024-04-22T18:17:05.866Z,69.41
2024-04-22T18:19:34.003Z,69.75
2024-04-22T18:22:07.629Z,69.79
2024-04-22T18:24:41.174Z,69.85
2024-04-22T18:27:08.641Z,70.11
2024-04-22T18:29:36.069Z,70.21
2024-04-22T18:32:03.670Z,70.33
2024-04-22T18:34:32.423Z,70.48
2024-04-22T18:36:59.857Z,70.33
2024-04-22T18:39:27.466Z,70.23
2024-04-22T18:41:54.906Z,70.25
2024-04-22T18:44:24.883Z,70.33
2024-04-22T18:46:52.959Z,70.46
2024-04-22T18:49:20.560Z,70.46
2024-04-22T18:51:48.040Z,70.36
2024-04-22T18:54:16.161Z,70.39
2024-04-22T18:56:43.589Z,70.77
2024-04-22T18:59:10.997Z,70.81
2024-04-22T19:01:38.591Z,70.51
2024-04-22T19:04:06.227Z,70.60
2024-04-22T19:06:33.799Z,70.69
2024-04-22T19:09:01.416Z,70.60
2024-04-22T19:11:29.347Z,70.70
2024-04-22T19:13:56.839Z,70.92
2024-04-22T19:16:24.301Z,71.09
2024-04-22T19:18:53.312Z,71.12
2024-04-22T19:21:20.745Z,71.25
2024-04-22T19:23:53.092Z,71.38
2024-04-22T19:26:20.635Z,71.39
2024-04-22T19:28:48.151Z,71.40
2024-04-22T19:31:15.966Z,71.53
2024-04-22T19:33:43.436Z,71.60
2024-04-22T19:36:11.055Z,71.58
2024-04-22T19:38:38.549Z,71.61
2024-04-22T19:41:06.000Z,71.59
2024-04-22T19:43:33.612Z,71.55
2024-04-22T19:46:01.187Z,71.59
2024-04-22T19:48:28.805Z,71.57
2024-04-22T19:50:56.257Z,71.71
2024-04-22T19:53:23.995Z,71.85
2024-04-22T19:55:51.602Z,71.84
2024-04-22T19:58:20.630Z,71.90
2024-04-22T20:00:48.334Z,71.92
2024-04-22T20:03:15.920Z,72.18
2024-04-22T20:05:45.311Z,72.36
2024-04-22T20:08:13.603Z,72.37
2024-04-22T20:10:41.710Z,72.18
2024-04-22T20:13:10.735Z,72.24
2024-04-22T20:16:04.288Z,72.38
2024-04-22T20:18:42.261Z,72.58
2024-04-22T20:21:09.885Z,72.64
2024-04-22T20:23:37.297Z,72.62
2024-04-22T20:26:05.283Z,72.54
2024-04-22T20:28:33.255Z,72.52
2024-04-22T20:31:02.213Z,72.46
2024-04-22T20:33:29.769Z,72.66
2024-04-22T20:35:57.496Z,72.55
2024-04-22T20:38:25.092Z,72.45
2024-04-22T20:41:00.290Z,72.41
2024-04-22T20:43:30.154Z,72.66
2024-04-22T20:46:01.661Z,72.63
2024-04-22T20:48:37.549Z,72.72
2024-04-22T20:51:06.132Z,73.00
2024-04-22T20:53:34.430Z,72.86
2024-04-22T20:56:03.540Z,73.24
2024-04-22T20:58:32.787Z,73.23
2024-04-22T21:01:02.355Z,73.35
2024-04-22T21:03:30.358Z,73.22
2024-04-22T21:05:59.673Z,73.22
2024-04-22T21:08:28.473Z,73.09
2024-04-22T21:10:59.551Z,73.03
2024-04-22T21:13:27.209Z,73.20
2024-04-22T21:15:54.884Z,73.28
2024-04-22T21:18:22.596Z,73.26
2024-04-22T21:20:50.272Z,73.39
2024-04-22T21:23:17.816Z,73.41
2024-04-22T21:25:45.374Z,73.49
2024-04-22T21:28:13.007Z,73.43
2024-04-22T21:30:40.433Z,73.34
2024-04-22T21:35:38.402Z,73.29
2024-04-22T21:38:05.929Z,73.46
2024-04-22T21:40:33.473Z,73.51
2024-04-22T21:43:00.977Z,73.59
2024-04-22T21:45:28.404Z,73.62
2024-04-22T21:47:55.850Z,73.64
2024-04-22T21:50:23.384Z,73.62
2024-04-22T21:52:50.949Z,73.68
2024-04-22T21:55:23.953Z,73.74
2024-04-22T21:58:29.831Z,73.69
2024-04-22T22:01:35.091Z,73.64
2024-04-22T22:04:40.180Z,74.01
2024-04-22T22:07:20.713Z,74.12
2024-04-22T22:09:49.364Z,74.28
2024-04-22T22:12:20.550Z,74.27
2024-04-22T22:14:50.395Z,74.56
2024-04-22T22:17:21.001Z,74.48
2024-04-22T22:19:50.231Z,74.48
2024-04-22T22:22:18.252Z,74.59
2024-04-22T22:24:46.222Z,74.51
2024-04-22T22:27:15.307Z,74.67
2024-04-22T22:29:43.275Z,74.74
2024-04-22T22:32:11.123Z,74.82
2024-04-22T22:34:38.703Z,74.75
2024-04-22T22:37:07.574Z,74.69
2024-04-22T22:39:35.314Z,74.69
2024-04-22T22:42:02.931Z,74.69
2024-04-22T22:44:30.383Z,74.72
2024-04-22T22:47:02.391Z,74.86
2024-04-22T22:49:30.273Z,75.12
2024-04-22T22:51:57.736Z,75.10
2024-04-22T22:54:25.253Z,75.17
2024-04-22T22:56:59.816Z,74.96
2024-04-22T22:59:28.479Z,75.13
2024-04-22T23:01:57.800Z,75.24
2024-04-22T23:04:25.438Z,75.06
2024-04-22T23:06:53.321Z,75.11
2024-04-22T23:09:20.744Z,74.99
2024-04-22T23:11:48.203Z,74.96
2024-04-22T23:14:15.726Z,75.11
2024-04-22T23:16:49.212Z,75.27
2024-04-22T23:19:16.733Z,75.26
2024-04-22T23:21:44.182Z,75.12
2024-04-22T23:24:11.719Z,75.11
2024-04-22T23:26:51.797Z,75.00
2024-04-22T23:29:19.265Z,74.97
2024-04-22T23:31:46.770Z,75.01
2024-04-22T23:34:14.247Z,74.84
2024-04-22T23:36:48.954Z,74.83
2024-04-22T23:39:17.516Z,74.86
2024-04-22T23:41:45.062Z,74.99
2024-04-22T23:44:13.122Z,74.95
2024-04-22T23:46:53.632Z,74.92
2024-04-22T23:49:22.064Z,74.89
2024-04-22T23:51:49.676Z,74.83
2024-04-22T23:54:17.273Z,74.84
2024-04-22T23:56:44.981Z,74.83
2024-04-22T23:59:12.896Z,74.84
